Slide Mountain Weather observations

Data are for 10 minute period ending at time listed.
 Day   Time   Solar   Ave.   Ave.  Ave.  Vector  Max.    Baro.  
  of    of     Rad.   Air    Rel.  Wind   Wind   Wind   Press.  
Year   Day            Temp.  Hum.  Speed  Dir.   Gust           
2026   (PST)  Kw/m2    F      %     mph   deg.    mph     mb.   
-----------------------------------------------------------------
 121   21:20   0.00   41.3    29    9.6   116     13.7    714.4 
 121   21:30   0.00   41.1    28   10.3   113     15.1    714.4 
 121   21:40   0.00   41.4    27   12.2   112     15.2    714.4 
 121   21:50   0.00   41.5    26   11.3   114     13.4    714.4 
 121   22:00   0.00   41.3    27    8.9   113     10.8    714.4 
 121   22:10   0.00   41.2    27    9.8   113     12.6    714.3 
 121   22:20   0.00   41.2    27   11.8   113     15.6    714.2 
 121   22:30   0.00   41.0    27   11.2   111     14.4    714.2 
 121   22:40   0.00   40.9    27   11.8   114     15.5    714.2 
 121   22:50   0.00   41.0    27   12.4   114     15.6    714.2 
 121   23:00   0.00   40.8    28   10.9   116     12.7    714.2 
 121   23:10   0.00   40.8    27   11.1   115     16.2    714.2 
 121   23:20   0.00   40.9    27   13.3   116     18.0    714.1 
 121   23:30   0.00   40.7    27   11.8   119     16.7    714.2 
 121   23:40   0.00   40.8    27   14.7   127     22.0    714.1 
 121   23:50   0.00   40.8    28   15.2   126     21.7    714.0 
 122    0:00   0.00   40.7    31   15.3   124     21.1    713.9 
 122    0:10   0.00   40.5    36   15.4   122     18.2    713.8 
 122    0:20   0.00   40.4    44   16.5   124     21.1    713.8 
 122    0:30   0.00   40.5    36   17.3   125     21.6    713.7 
 122    0:40   0.00   40.5    36   17.1   126     21.0    713.6 
 122    0:50   0.00   40.7    41   20.5   132     22.4    713.5 
 122    1:00   0.00   40.8    43   18.9   134     21.1    713.5 
 122    1:10   0.00   41.0    44   19.3   139     21.3    713.4 
 122    1:20   0.00   40.7    47   18.9   134     20.3    713.3 
 122    1:30   0.00   40.6    47   18.4   134     20.0    713.2 
 122    1:40   0.00   40.8    47   18.6   137     20.5    713.1 
 122    1:50   0.00   40.6    41   16.1   130     19.6    713.1 
 122    2:00   0.00   40.5    34   16.6   135     19.1    713.0 
 122    2:10   0.00   41.1    42   19.1   141     21.8    712.9 
 122    2:20   0.00   41.3    45   18.0   149     20.7    713.0 
 122    2:30   0.00   41.2    44   16.6   153     18.8    713.0 
 122    2:40   0.00   41.1    41   15.2   156     18.1    713.0 
 122    2:50   0.00   40.8    39   11.3   168     14.2    713.0 
 122    3:00   0.00   40.3    42   10.2   180     13.1    713.0 
 122    3:10   0.00   39.9    44    8.0   194     10.2    713.0 
 122    3:20   0.00   39.1    51    8.0   201     10.9    712.9 
 122    3:30   0.00   38.8    55    6.1   205      9.8    712.9 
 122    3:40   0.00   38.7    58    7.2   210     12.2    712.9 
 122    3:50   0.00   38.0    69    7.4   212     10.8    712.8 
 122    4:00   0.00   37.5    76    9.4   202     11.3    712.7 
 122    4:10   0.00   37.9    75   10.4   200     16.6    712.7 
 122    4:20   0.00   38.3    72   11.3   201     15.9    712.6 
 122    4:30   0.00   38.2    71   12.7   208     19.2    712.6 
 122    4:40   0.00   38.3    66   15.4   210     25.9    712.5 
 122    4:50   0.00   37.9    67   13.8   203     19.6    712.5 
 122    5:00   0.00   37.6    69   14.0   208     17.8    712.5 
 122    5:10   0.01   37.5    70   14.2   213     18.7    712.4 
 122    5:20   0.02   37.4    70   15.0   213     19.1    712.4 
 122    5:30   0.02   37.4    72   15.7   217     21.1    712.4 
 122    5:40   0.03   37.5    72   16.2   216     20.2    712.5 
 122    5:50   0.05   37.6    72   16.2   215     19.4    712.5 
 122    6:00   0.07   37.5    72   14.2   214     17.7    712.5 
 122    6:10   0.09   37.9    66   14.8   205     18.7    712.6 
 122    6:20   0.09   38.1    63   15.0   208     18.4    712.6 
 122    6:30   0.11   38.4    57   14.9   211     18.9    712.7 
 122    6:40   0.11   38.4    59   15.8   216     19.8    712.7 
 122    6:50   0.15   38.5    61   16.7   206     21.0    712.8 
 122    7:00   0.21   38.8    57   19.7   215     27.2    712.9 
 122    7:10   0.22   39.2    55   17.9   209     24.2    713.0 
 122    7:20   0.23   39.4    52   17.2   209     23.8    713.0 
 122    7:30   0.37   40.1    51   18.9   212     28.2    713.0 
 122    7:40   0.23   40.1    52   18.3   210     33.7    713.0 
 122    7:50   0.20   39.8    51   18.9   209     31.6    713.1 
 122    8:00   0.28   40.0    50   18.7   211     28.6    713.1 
 122    8:10   0.35   40.4    50   20.5   210     27.4    713.1 
 122    8:20   0.36   40.9    50   15.9   211     24.5    713.1 
 122    8:30   0.34   41.4    50   13.1   207     21.7    713.2 
 122    8:40   0.34   41.6    50   12.5   197     20.9    713.3 
 122    8:50   0.36   41.4    50   15.0   195     23.6    713.3 
 122    9:00   0.34   41.9    50   14.6   187     26.0    713.3 
 122    9:10   0.42   42.2    50   13.6   197     26.2    713.3 
 122    9:20   0.34   42.2    50   16.2   201     30.5    713.3 
 122    9:30   0.33   41.7    51   18.5   201     34.1    713.3 
 122    9:40   0.34   41.7    51   19.4   208     31.9    713.3 
 122    9:50   0.38   42.0    51   18.5   210     28.2    713.4 
 122   10:00   0.54   43.3    48   14.5   192     21.3    713.5 
 122   10:10   0.61   44.3    47   15.7   191     27.2    713.5 
 122   10:20   0.53   44.9    45   17.2   197     25.1    713.5 
 122   10:30   0.58   44.9    44   18.7   180     29.4    713.4 
 122   10:40   0.53   45.4    43   14.4   197     24.6    713.4 
 122   10:50   0.44   45.4    44   11.1   175     24.7    713.5 
 122   11:00   0.43   45.4    44   13.7   189     27.3    713.5 
 122   11:10   0.32   45.5    44   10.3   194     16.9    713.5 
 122   11:20   0.28   44.5    46   15.0   196     25.0    713.4 
 122   11:30   0.27   44.2    47   13.6   189     20.4    713.5 
 122   11:40   0.25   44.1    47   14.5   187     25.7    713.5 
 122   11:50   0.27   43.4    48   15.8   209     28.2    713.4 
 122   12:00   0.23   43.4    49   15.3   215     21.3    713.4 
 122   12:10   0.28   43.7    48   13.4   196     23.6    713.4 
 122   12:20   0.32   44.3    47   13.5   202     24.2    713.4 
 122   12:30   0.32   44.6    47   14.0   191     20.3    713.4 
 122   12:40   0.28   44.4    48   14.3   184     29.3    713.4 
 122   12:50   0.45   45.4    46   12.4   188     20.7    713.4 
 122   13:00   0.34   46.0    46   11.0   177     19.1    713.4 
 122   13:10   0.24   45.5    48   10.7   187     18.2    713.5 
 122   13:20   0.25   45.2    49    8.7   201     14.9    713.4 
 122   13:30   0.27   45.1    50   12.1   214     17.1    713.3 
 122   13:40   0.34   45.0    50   14.6   210     19.5    713.1 
 122   13:50   0.13   44.3    50   18.4   199     32.3    713.1 
 122   14:00   0.32   42.6    52   14.9   215     37.2    713.0 
 122   14:10   0.37   44.6    51   15.9   209     23.5    712.8 
 122   14:20   0.28   44.7    51   17.4   209     22.5    712.7 
 122   14:30   0.26   44.3    51   17.4   205     23.9    712.6 
 122   14:40   0.40   45.2    50   13.7   202     21.0    712.5 
 122   14:50   0.30   45.4    50   13.5   199     22.1    712.5 
 122   15:00   0.16   44.3    51   13.7   208     22.1    712.5 
 122   15:10   0.19   44.0    52   12.3   200     18.6    712.4 
 122   15:20   0.16   44.1    53   14.6   211     20.3    712.3 
 122   15:30   0.08   43.0    57   15.5   208     24.3    712.2 
 122   15:40   0.07   42.8    59   12.4   213     15.5    712.3 
 122   15:50   0.06   42.7    60    8.6   207     13.9    712.3 
 122   16:00   0.04   42.3    61    9.3   216     14.2    712.4 
 122   16:10   0.07   42.2    63    6.7   182     11.2    712.5 
 122   16:20   0.05   42.5    63    3.0   135     10.5    712.5 
 122   16:30   0.05   41.6    64   12.0    93     26.4    712.6 
 122   16:40   0.12   40.2    66    9.0    56     15.8    712.5 
 122   16:50   0.06   39.5    68   15.3    53     22.2    712.4 
 122   17:00   0.05   39.0    71   17.6    46     20.9    712.3 
 122   17:10   0.06   38.7    72   13.6    33     18.6    712.3 
 122   17:20   0.03   38.7    72   11.7    35     15.3    712.3 
 122   17:30   0.03   38.3    75   11.1    14     14.8    712.3 
 122   17:40   0.01   38.7    72    7.8    54      9.7    712.2 
 122   17:50   0.01   39.5    68   11.4    95     22.9    712.1 
 122   18:00   0.01   39.7    67    3.5   108      8.4    712.1 
 122   18:10   0.01   40.1    65   10.7    92     16.7    712.0 
 122   18:20   0.01   39.5    68   12.4    66     18.5    712.0 
 122   18:30   0.01   38.4    73   14.7    40     19.8    712.1 
 122   18:40   0.01   38.2    73   15.7    37     20.0    712.1 
 122   18:50   0.00   38.7    70   20.6    58     29.4    712.1 
 122   19:00   0.00   38.5    71   22.6    59     31.8    712.2 
 122   19:10   0.00   36.9    83   19.9    66     27.0    712.4 
 122   19:20   0.00   35.1    96   26.5    42     31.5    712.3 
 122   19:30   0.00   35.0    96   22.7    38     26.7    712.4 
 122   19:40   0.00   35.1    95   23.7    38     29.2    712.3 
 122   19:50   0.00   35.8    89   16.4    60     24.6    712.5 
 122   20:00   0.00   37.3    80   16.6    87     22.2    712.6 
 122   20:10   0.00   37.5    80   20.6   100     26.5    712.7 
 122   20:20   0.00   36.3    87   16.5    88     27.2    712.8 
 122   20:30   0.00   37.0    83   15.6   103     25.0    712.7 
 122   20:40   0.00   37.5    80   12.2   101     18.2    712.8 
 122   20:50   0.00   38.0    75   14.6    74     20.7    712.8 
 122   21:00   0.00   38.4    72   19.3    66     22.4    712.7 
 122   21:10   0.00   38.1    73   19.7    62     22.7    712.7 

Return to Slide Mountain graphs page.


Western Regional Climate Center,wrcc@dri.edu